createdAt,value
2022-08-07T00:02:35.938Z,80.50
2022-08-07T00:04:09.236Z,80.47
2022-08-07T00:06:51.267Z,80.05
2022-08-07T00:09:20.870Z,80.12
2022-08-07T00:11:55.760Z,79.75
2022-08-07T00:14:30.495Z,80.08
2022-08-07T00:16:59.669Z,80.12
2022-08-07T00:20:00.318Z,80.26
2022-08-07T00:22:14.912Z,80.33
2022-08-07T00:24:58.951Z,80.75
2022-08-07T00:27:25.913Z,80.51
2022-08-07T00:30:04.419Z,80.94
2022-08-07T00:32:49.239Z,81.08
2022-08-07T00:35:17.468Z,81.69
2022-08-07T00:37:47.649Z,81.57
2022-08-07T00:40:15.647Z,81.71
2022-08-07T00:43:02.065Z,81.53
2022-08-07T00:45:29.299Z,82.07
2022-08-07T00:48:09.701Z,81.48
2022-08-07T00:50:51.274Z,81.94
2022-08-07T00:53:20.221Z,81.41
2022-08-07T00:56:02.894Z,80.94
2022-08-07T00:58:32.400Z,81.05
2022-08-07T01:00:59.048Z,81.26
2022-08-07T01:03:56.942Z,81.79
2022-08-07T01:06:16.605Z,81.83
2022-08-07T01:08:53.311Z,81.61
2022-08-07T01:12:23.838Z,82.51
2022-08-07T01:14:07.844Z,82.78
2022-08-07T01:16:36.724Z,82.74
2022-08-07T01:19:18.315Z,83.47
2022-08-07T01:21:47.123Z,83.53
2022-08-07T01:24:14.270Z,84.39
2022-08-07T01:26:51.708Z,84.32
2022-08-07T01:29:20.191Z,84.03
2022-08-07T01:31:49.288Z,84.07
2022-08-07T01:34:18.068Z,83.81
2022-08-07T01:36:52.565Z,83.81
2022-08-07T01:39:40.702Z,83.79
2022-08-07T01:42:39.338Z,83.33
2022-08-07T01:45:04.973Z,82.77
2022-08-07T01:48:19.571Z,82.54
2022-08-07T01:50:29.074Z,82.49
2022-08-07T01:52:58.429Z,82.58
2022-08-07T01:55:38.737Z,82.45
2022-08-07T01:58:27.331Z,82.60
2022-08-07T02:01:10.012Z,82.56
2022-08-07T02:03:55.931Z,82.93
2022-08-07T02:06:31.808Z,83.64
2022-08-07T02:09:08.920Z,84.21
2022-08-07T02:12:02.955Z,84.68
2022-08-07T02:14:40.379Z,85.33
2022-08-07T02:17:10.891Z,85.16
2022-08-07T02:20:06.609Z,85.09
2022-08-07T02:22:33.118Z,85.38
2022-08-07T02:25:00.766Z,85.55
2022-08-07T02:27:34.232Z,85.50
2022-08-07T02:30:07.165Z,85.37
2022-08-07T02:32:38.718Z,85.16
2022-08-07T02:35:10.795Z,85.09
2022-08-07T02:37:43.929Z,85.39
2022-08-07T02:40:29.967Z,85.14
2022-08-07T02:42:58.822Z,84.80
2022-08-07T02:45:58.749Z,85.44
2022-08-07T02:48:15.535Z,85.70
2022-08-07T02:50:44.048Z,85.17
2022-08-07T02:53:15.145Z,84.91
2022-08-07T02:56:03.413Z,84.87
2022-08-07T02:58:33.801Z,84.81
2022-08-07T03:01:03.094Z,85.25
2022-08-07T03:03:49.174Z,85.40
2022-08-07T03:06:26.184Z,85.45
2022-08-07T03:09:01.620Z,84.97
2022-08-07T03:11:39.018Z,84.79
2022-08-07T03:14:19.089Z,84.30
2022-08-07T03:16:49.296Z,84.67
2022-08-07T03:19:16.559Z,85.65
2022-08-07T03:21:50.811Z,85.20
2022-08-07T03:24:26.945Z,84.91
2022-08-07T03:26:58.885Z,84.91
2022-08-07T03:29:30.410Z,85.18
2022-08-07T03:31:57.923Z,85.38
2022-08-07T03:34:27.677Z,85.74
2022-08-07T03:36:55.113Z,85.92
2022-08-07T03:40:00.070Z,86.11
2022-08-07T03:42:12.510Z,85.67
2022-08-07T03:44:39.529Z,86.60
2022-08-07T03:47:11.537Z,86.36
2022-08-07T03:49:42.496Z,86.39
2022-08-07T03:52:22.283Z,86.39
2022-08-07T03:54:55.275Z,86.31
2022-08-07T03:58:32.675Z,86.51
2022-08-07T04:00:14.754Z,87.16
2022-08-07T04:02:47.328Z,87.33
2022-08-07T04:05:14.164Z,86.89
2022-08-07T04:07:46.581Z,86.65
2022-08-07T04:10:15.669Z,86.55
2022-08-07T04:12:48.791Z,86.35
2022-08-07T04:15:17.444Z,85.81
2022-08-07T04:18:32.001Z,85.40
2022-08-07T04:20:31.820Z,85.78
2022-08-07T04:23:06.256Z,85.99
2022-08-07T04:25:36.023Z,86.44
2022-08-07T04:28:08.124Z,86.07
2022-08-07T04:30:43.723Z,86.08
2022-08-07T04:33:24.378Z,85.77
2022-08-07T04:35:53.816Z,83.39
2022-08-07T04:38:20.813Z,82.60
2022-08-07T04:40:52.843Z,80.24
2022-08-07T04:44:10.532Z,77.75
2022-08-07T04:47:04.493Z,77.63
2022-08-07T04:49:37.818Z,78.28
2022-08-07T04:52:21.377Z,76.76
2022-08-07T04:58:14.874Z,75.54
2022-08-07T04:58:27.959Z,76.79
2022-08-07T05:01:13.885Z,77.25
2022-08-07T05:04:06.889Z,77.45
2022-08-07T05:06:59.127Z,75.67
2022-08-07T05:09:43.382Z,77.13
2022-08-07T05:12:26.707Z,76.56
2022-08-07T05:15:15.952Z,71.23
2022-08-07T05:17:57.065Z,63.93
2022-08-07T05:20:33.692Z,59.13
2022-08-07T05:23:15.780Z,55.64
2022-08-07T05:26:11.505Z,50.78
2022-08-07T05:28:35.204Z,50.20
2022-08-07T05:31:03.804Z,47.92
2022-08-07T05:33:31.500Z,47.34
2022-08-07T05:36:04.551Z,46.79
2022-08-07T05:38:58.200Z,45.05
2022-08-07T05:41:21.861Z,43.45
2022-08-07T05:44:08.000Z,40.82
2022-08-07T05:46:38.724Z,38.91
2022-08-07T05:49:11.781Z,38.00
2022-08-07T05:51:42.201Z,37.26
2022-08-07T05:54:30.199Z,36.53
2022-08-07T05:56:57.930Z,35.92
2022-08-07T05:59:26.274Z,36.45
2022-08-07T06:01:58.039Z,37.41
2022-08-07T06:04:30.274Z,38.32
2022-08-07T06:07:03.655Z,38.00
2022-08-07T06:10:03.849Z,37.87
2022-08-07T06:12:31.750Z,38.25
2022-08-07T06:15:05.823Z,38.10
2022-08-07T06:17:37.802Z,37.50
2022-08-07T06:20:06.549Z,38.06
2022-08-07T06:22:42.233Z,37.70
2022-08-07T06:25:28.683Z,38.24
2022-08-07T06:28:17.865Z,39.35
2022-08-07T06:30:54.240Z,39.50
2022-08-07T06:33:22.561Z,39.29
2022-08-07T06:36:12.831Z,39.39
2022-08-07T06:38:36.349Z,39.15
2022-08-07T06:41:09.640Z,37.93
2022-08-07T06:43:46.060Z,37.30
2022-08-07T06:46:15.361Z,36.75
2022-08-07T06:48:57.704Z,35.93
2022-08-07T06:51:30.991Z,36.99
2022-08-07T06:55:28.913Z,37.11
2022-08-07T06:56:51.518Z,37.66
2022-08-07T07:00:15.000Z,38.36
2022-08-07T07:02:15.484Z,37.32
2022-08-07T07:05:02.547Z,36.99
2022-08-07T07:08:00.331Z,34.67
2022-08-07T07:10:15.474Z,34.86
2022-08-07T07:12:55.860Z,32.49
2022-08-07T07:15:32.736Z,35.96
2022-08-07T07:18:47.439Z,36.67
2022-08-07T07:21:26.986Z,35.02
2022-08-07T07:24:12.558Z,32.48
2022-08-07T07:26:49.598Z,33.71
2022-08-07T07:29:39.519Z,33.68
2022-08-07T07:32:13.959Z,35.66
2022-08-07T07:34:48.654Z,34.46
2022-08-07T07:37:44.205Z,34.26
2022-08-07T07:40:10.283Z,33.72
2022-08-07T07:42:43.289Z,34.07
2022-08-07T07:45:15.949Z,37.98
2022-08-07T07:47:52.663Z,39.42
2022-08-07T07:50:34.368Z,37.34
2022-08-07T07:53:13.532Z,36.32
2022-08-07T07:55:54.803Z,37.04
2022-08-07T07:58:29.445Z,36.57
2022-08-07T08:00:58.396Z,35.38
2022-08-07T08:04:09.455Z,34.68
2022-08-07T08:06:15.598Z,36.52
2022-08-07T08:08:44.127Z,37.47
2022-08-07T08:11:13.870Z,41.15
2022-08-07T08:13:54.424Z,41.47
2022-08-07T08:16:29.960Z,43.26
2022-08-07T08:19:00.428Z,44.42
2022-08-07T08:22:03.373Z,45.82
2022-08-07T08:25:04.712Z,44.31
2022-08-07T08:27:56.530Z,47.09
2022-08-07T08:30:27.708Z,48.08
2022-08-07T08:32:58.523Z,47.62
2022-08-07T08:35:28.457Z,46.63
2022-08-07T08:38:00.532Z,46.82
2022-08-07T08:40:37.655Z,45.83
2022-08-07T08:43:15.978Z,44.65
2022-08-07T08:45:59.028Z,44.19
2022-08-07T08:48:39.740Z,42.73
2022-08-07T08:51:26.209Z,45.52
2022-08-07T08:54:29.828Z,43.76
2022-08-07T08:57:00.039Z,43.39
2022-08-07T08:59:48.076Z,42.37
2022-08-07T09:02:42.974Z,42.23
2022-08-07T09:05:19.997Z,42.13
2022-08-07T09:08:09.879Z,41.59
2022-08-07T09:10:47.579Z,42.76
2022-08-07T09:13:37.098Z,41.80
2022-08-07T09:16:24.060Z,40.95
2022-08-07T09:19:52.922Z,42.23
2022-08-07T09:22:22.941Z,42.42
2022-08-07T09:25:00.868Z,43.51
2022-08-07T09:27:59.813Z,43.04
2022-08-07T09:30:36.503Z,42.12
2022-08-07T09:33:52.770Z,42.55
2022-08-07T09:36:18.931Z,41.31
2022-08-07T09:39:27.416Z,43.32
2022-08-07T09:42:33.240Z,43.04
2022-08-07T09:47:25.530Z,42.37
2022-08-07T09:48:56.089Z,42.88
2022-08-07T09:52:16.613Z,45.16
2022-08-07T09:54:46.323Z,43.33
2022-08-07T09:57:37.566Z,43.23
2022-08-07T10:00:16.566Z,41.74
2022-08-07T10:04:06.115Z,43.23
2022-08-07T10:06:24.813Z,42.27
2022-08-07T10:09:15.828Z,41.10
2022-08-07T10:12:01.991Z,39.83
2022-08-07T10:15:03.461Z,40.83
2022-08-07T10:18:08.912Z,41.62
2022-08-07T10:24:21.531Z,41.50
2022-08-07T10:27:13.010Z,41.53
2022-08-07T10:30:06.557Z,40.52
2022-08-07T10:33:08.487Z,39.84
2022-08-07T10:36:18.030Z,38.17
2022-08-07T10:39:41.274Z,39.16
2022-08-07T10:42:31.131Z,37.12
2022-08-07T10:45:57.271Z,39.32
2022-08-07T10:48:34.992Z,37.45
2022-08-07T10:51:16.825Z,38.42
2022-08-07T10:54:11.064Z,38.57
2022-08-07T10:57:34.799Z,38.36
2022-08-07T11:00:36.204Z,39.60
2022-08-07T11:03:14.878Z,38.08
2022-08-07T11:06:18.314Z,39.44
2022-08-07T11:09:03.004Z,39.18
2022-08-07T11:11:51.940Z,37.49
2022-08-07T11:14:46.137Z,37.27
2022-08-07T11:17:43.136Z,37.26
2022-08-07T11:20:24.672Z,37.11
2022-08-07T11:23:30.531Z,37.97
2022-08-07T11:26:16.092Z,37.13
2022-08-07T11:28:53.476Z,37.18
2022-08-07T11:31:38.989Z,38.14
2022-08-07T11:34:19.348Z,39.23
2022-08-07T11:37:04.559Z,39.23
2022-08-07T11:39:59.945Z,39.92
2022-08-07T11:42:59.878Z,39.92
2022-08-07T11:46:09.856Z,40.73
2022-08-07T11:49:27.724Z,40.12
2022-08-07T11:52:03.033Z,40.09
2022-08-07T11:54:41.676Z,37.79
2022-08-07T11:58:00.592Z,38.40
2022-08-07T12:00:40.361Z,38.81
2022-08-07T12:03:42.160Z,38.50
2022-08-07T12:06:37.923Z,36.93
2022-08-07T12:09:16.759Z,39.15
2022-08-07T12:12:09.028Z,38.77
2022-08-07T12:15:00.281Z,39.23
2022-08-07T12:17:38.552Z,38.87
2022-08-07T12:20:36.556Z,38.33
2022-08-07T12:24:05.609Z,38.40
2022-08-07T12:26:23.615Z,40.52
2022-08-07T12:29:11.834Z,39.76
2022-08-07T12:32:12.391Z,38.24
2022-08-07T12:34:42.097Z,36.72
2022-08-07T12:37:23.461Z,36.46
2022-08-07T12:39:57.633Z,35.06
2022-08-07T12:42:28.591Z,36.65
2022-08-07T12:45:04.485Z,38.63
2022-08-07T12:47:55.016Z,39.63
2022-08-07T12:50:40.291Z,37.64
2022-08-07T12:54:37.158Z,34.55
2022-08-07T12:56:37.988Z,35.03
2022-08-07T12:59:08.393Z,37.16
2022-08-07T13:02:09.813Z,36.76
2022-08-07T13:05:02.325Z,33.05
2022-08-07T13:08:14.363Z,32.25
2022-08-07T13:10:55.951Z,34.37
2022-08-07T13:13:50.079Z,33.79
2022-08-07T13:16:31.149Z,34.74
2022-08-07T13:19:34.887Z,34.98
2022-08-07T13:22:27.549Z,35.52
2022-08-07T13:25:00.488Z,33.23
2022-08-07T13:28:12.603Z,32.92
2022-08-07T13:30:39.924Z,33.93
2022-08-07T13:34:31.527Z,36.61
2022-08-07T13:36:21.032Z,34.33
2022-08-07T13:39:12.954Z,34.93
2022-08-07T13:41:50.994Z,36.82
2022-08-07T13:44:34.426Z,35.42
2022-08-07T13:47:09.357Z,34.47
2022-08-07T13:50:35.519Z,34.67
2022-08-07T13:52:39.541Z,37.81
2022-08-07T13:55:19.590Z,34.96
2022-08-07T13:58:31.421Z,35.29
2022-08-07T14:01:10.683Z,35.10
2022-08-07T14:04:06.964Z,33.53
2022-08-07T14:06:35.836Z,34.91
2022-08-07T14:09:05.129Z,36.10
2022-08-07T14:12:00.077Z,34.56
2022-08-07T14:14:48.928Z,34.83
2022-08-07T14:18:12.689Z,36.33
2022-08-07T14:20:40.040Z,34.50
2022-08-07T14:23:31.674Z,33.27
2022-08-07T14:26:30.099Z,36.68
2022-08-07T14:29:10.669Z,35.88
2022-08-07T14:31:56.065Z,33.16
2022-08-07T14:34:29.530Z,34.77
2022-08-07T14:36:57.725Z,34.86
2022-08-07T14:40:16.275Z,35.13
2022-08-07T14:42:20.691Z,35.53
2022-08-07T14:44:53.544Z,37.83
2022-08-07T14:47:21.072Z,38.55
2022-08-07T14:49:56.923Z,37.00
2022-08-07T14:52:28.113Z,37.42
2022-08-07T14:54:58.589Z,36.96
2022-08-07T14:57:58.477Z,39.13
2022-08-07T15:00:20.651Z,38.21
2022-08-07T15:02:59.889Z,38.54
2022-08-07T15:05:27.537Z,38.76
2022-08-07T15:07:58.983Z,36.84
2022-08-07T15:10:29.689Z,38.39
2022-08-07T15:13:00.474Z,37.68
2022-08-07T15:18:45.258Z,38.88
2022-08-07T15:21:44.240Z,38.48
2022-08-07T15:25:14.409Z,37.11
2022-08-07T15:27:17.196Z,38.72
2022-08-07T15:30:08.531Z,40.25
2022-08-07T15:38:30.132Z,39.68
2022-08-07T15:41:22.755Z,39.85
2022-08-07T15:43:59.171Z,40.57
2022-08-07T15:49:17.342Z,39.18
2022-08-07T15:54:34.672Z,40.64
2022-08-07T15:57:27.650Z,39.28
2022-08-07T15:59:59.313Z,40.75
2022-08-07T16:02:29.062Z,40.95
2022-08-07T16:05:15.537Z,41.60
2022-08-07T16:08:32.107Z,42.83
2022-08-07T16:10:37.456Z,42.16
2022-08-07T16:13:57.555Z,41.79
2022-08-07T16:16:42.861Z,43.45
2022-08-07T16:19:16.223Z,42.52
2022-08-07T16:22:05.058Z,43.34
2022-08-07T16:24:55.163Z,42.68
2022-08-07T16:27:40.447Z,44.10
2022-08-07T16:30:29.749Z,41.93
2022-08-07T16:34:01.956Z,42.58
2022-08-07T16:36:22.114Z,41.90
2022-08-07T16:39:20.798Z,43.11
2022-08-07T16:42:38.080Z,44.03
2022-08-07T16:46:11.002Z,45.78
2022-08-07T16:48:58.464Z,45.33
2022-08-07T16:52:41.694Z,44.74
2022-08-07T16:55:11.492Z,44.11
2022-08-07T16:58:03.918Z,43.80
2022-08-07T17:00:40.773Z,45.03
2022-08-07T17:03:58.528Z,45.00
2022-08-07T17:06:31.347Z,45.45
2022-08-07T17:10:06.503Z,45.14
2022-08-07T17:13:24.450Z,44.65
2022-08-07T17:16:14.103Z,44.46
2022-08-07T17:19:15.537Z,44.46
2022-08-07T17:21:52.275Z,44.89
2022-08-07T17:24:47.242Z,46.38
2022-08-07T17:27:19.906Z,46.83
2022-08-07T17:30:19.886Z,46.80
2022-08-07T17:34:09.855Z,46.68
2022-08-07T17:36:20.853Z,47.23
2022-08-07T17:39:10.698Z,47.47
2022-08-07T17:42:04.914Z,47.40
2022-08-07T17:44:49.841Z,48.26
2022-08-07T17:47:38.404Z,48.18
2022-08-07T17:50:19.330Z,48.58
2022-08-07T17:52:59.854Z,49.04
2022-08-07T17:55:55.601Z,49.55
2022-08-07T17:58:32.963Z,50.28
2022-08-07T18:01:18.073Z,50.79
2022-08-07T18:04:06.995Z,50.17
2022-08-07T18:07:20.860Z,50.32
2022-08-07T18:10:06.691Z,50.91
2022-08-07T18:12:39.247Z,50.95
2022-08-07T18:15:19.049Z,51.05
2022-08-07T18:18:46.849Z,51.72
2022-08-07T18:21:29.546Z,51.88
2022-08-07T18:24:33.132Z,52.22
2022-08-07T18:27:17.284Z,53.17
2022-08-07T18:30:06.951Z,53.67
2022-08-07T18:32:52.845Z,53.82
2022-08-07T18:35:50.252Z,53.95
2022-08-07T18:38:58.642Z,54.17
2022-08-07T18:41:50.212Z,54.44
2022-08-07T18:45:40.030Z,54.82
2022-08-07T18:47:47.633Z,56.13
2022-08-07T18:50:39.042Z,55.74
2022-08-07T18:53:41.257Z,55.94
2022-08-07T18:56:58.265Z,56.68
2022-08-07T18:59:48.028Z,57.53
2022-08-07T19:02:42.604Z,57.42
2022-08-07T19:05:22.350Z,57.70
2022-08-07T19:08:07.014Z,57.69
2022-08-07T19:10:52.311Z,57.68
2022-08-07T19:13:43.994Z,57.48
2022-08-07T19:17:09.351Z,57.89
2022-08-07T19:20:07.562Z,58.64
2022-08-07T19:23:58.211Z,58.85
2022-08-07T19:26:24.686Z,59.58
2022-08-07T19:30:58.884Z,59.67
2022-08-07T19:32:10.876Z,60.33
2022-08-07T19:34:48.550Z,61.00
2022-08-07T19:37:20.471Z,61.14
2022-08-07T19:40:02.024Z,61.09
2022-08-07T19:42:40.262Z,61.46
2022-08-07T19:45:12.319Z,62.41
2022-08-07T19:47:42.219Z,62.37
2022-08-07T19:50:45.372Z,62.73
2022-08-07T19:52:58.424Z,63.31
2022-08-07T19:55:56.407Z,63.18
2022-08-07T19:58:15.741Z,63.40
2022-08-07T20:00:54.046Z,63.63
2022-08-07T20:03:34.977Z,64.16
2022-08-07T20:06:04.419Z,64.54
2022-08-07T20:08:35.573Z,64.68
2022-08-07T20:11:10.039Z,64.30
2022-08-07T20:13:50.153Z,64.28
2022-08-07T20:16:35.925Z,64.85
2022-08-07T20:19:05.625Z,65.06
2022-08-07T20:21:41.702Z,65.69
2022-08-07T20:24:18.002Z,65.72
2022-08-07T20:26:51.953Z,65.85
2022-08-07T20:29:49.129Z,66.21
2022-08-07T20:32:22.922Z,66.49
2022-08-07T20:35:04.807Z,66.60
2022-08-07T20:37:55.552Z,66.88
2022-08-07T20:40:33.025Z,67.43
2022-08-07T20:43:02.795Z,67.95
2022-08-07T20:46:26.923Z,67.60
2022-08-07T20:48:29.875Z,68.33
2022-08-07T20:51:02.926Z,69.05
2022-08-07T20:54:03.343Z,69.08
2022-08-07T20:56:25.946Z,68.86
2022-08-07T20:58:55.705Z,69.80
2022-08-07T21:01:25.961Z,69.30
2022-08-07T21:04:19.499Z,68.85
2022-08-07T21:06:53.638Z,70.21
2022-08-07T21:09:24.551Z,70.38
2022-08-07T21:12:00.218Z,71.33
2022-08-07T21:14:33.134Z,71.16
2022-08-07T21:18:03.662Z,70.75
2022-08-07T21:20:11.023Z,71.51
2022-08-07T21:22:54.526Z,71.86
2022-08-07T21:26:07.163Z,72.15
2022-08-07T21:28:48.174Z,72.27
2022-08-07T21:32:41.786Z,71.66
2022-08-07T21:34:33.833Z,72.24
2022-08-07T21:37:07.699Z,73.14
2022-08-07T21:39:59.446Z,73.13
2022-08-07T21:42:46.150Z,74.09
2022-08-07T21:46:10.584Z,73.94
2022-08-07T21:48:48.242Z,73.34
2022-08-07T21:51:32.088Z,73.50
2022-08-07T21:54:27.430Z,73.63
2022-08-07T21:57:39.510Z,73.95
2022-08-07T22:00:23.149Z,74.06
2022-08-07T22:03:05.726Z,74.24
2022-08-07T22:05:46.174Z,74.09
2022-08-07T22:08:24.753Z,74.01
2022-08-07T22:10:55.267Z,74.74
2022-08-07T22:13:50.532Z,74.68
2022-08-07T22:16:43.879Z,74.23
2022-08-07T22:19:23.509Z,74.39
2022-08-07T22:22:21.378Z,74.76
2022-08-07T22:25:10.979Z,75.08
2022-08-07T22:28:20.198Z,75.74
2022-08-07T22:31:05.565Z,75.77
2022-08-07T22:33:57.101Z,76.88
2022-08-07T22:37:01.485Z,76.53
2022-08-07T22:39:52.811Z,77.01
2022-08-07T22:42:25.942Z,77.03
2022-08-07T22:45:00.031Z,76.68
2022-08-07T22:47:38.246Z,76.60
2022-08-07T22:50:39.628Z,76.37
2022-08-07T22:54:07.709Z,78.55
2022-08-07T22:56:56.851Z,78.07
2022-08-07T22:59:52.682Z,78.35
2022-08-07T23:02:31.286Z,79.22
2022-08-07T23:06:08.908Z,77.89
2022-08-07T23:08:46.180Z,77.97
2022-08-07T23:11:41.331Z,78.95
2022-08-07T23:14:35.694Z,80.06
2022-08-07T23:17:37.818Z,80.58
2022-08-07T23:20:51.349Z,81.29
2022-08-07T23:24:05.855Z,81.13
2022-08-07T23:26:56.277Z,78.73
2022-08-07T23:30:35.990Z,78.37
2022-08-07T23:34:21.701Z,78.36
2022-08-07T23:36:00.225Z,79.53
2022-08-07T23:38:48.200Z,79.95
2022-08-07T23:42:04.870Z,79.71
2022-08-07T23:44:53.789Z,79.00
2022-08-07T23:47:48.311Z,79.51
2022-08-07T23:50:36.672Z,79.84
2022-08-07T23:53:22.697Z,80.39
2022-08-07T23:56:21.332Z,79.79
2022-08-07T23:58:59.097Z,80.78
